sensor_id;sensor_type;location;lat;lon;timestamp;temperature;humidity
4245;DHT22;2136;48.502;9.194;2023-05-10T00:02:01;15.80;99.90
4245;DHT22;2136;48.502;9.194;2023-05-10T00:04:28;15.80;99.90
4245;DHT22;2136;48.502;9.194;2023-05-10T00:06:55;15.80;99.90
4245;DHT22;2136;48.502;9.194;2023-05-10T00:09:23;15.80;99.90
4245;DHT22;2136;48.502;9.194;2023-05-10T00:11:50;15.80;99.90
4245;DHT22;2136;48.502;9.194;2023-05-10T00:14:17;15.80;99.90
4245;DHT22;2136;48.502;9.194;2023-05-10T00:16:44;15.70;99.90
4245;DHT22;2136;48.502;9.194;2023-05-10T00:19:11;15.70;99.90
4245;DHT22;2136;48.502;9.194;2023-05-10T00:21:37;15.70;99.90
4245;DHT22;2136;48.502;9.194;2023-05-10T00:24:05;15.70;99.90
4245;DHT22;2136;48.502;9.194;2023-05-10T00:26:33;15.70;99.90
4245;DHT22;2136;48.502;9.194;2023-05-10T00:29:00;15.70;99.90
4245;DHT22;2136;48.502;9.194;2023-05-10T00:31:27;15.70;99.90
4245;DHT22;2136;48.502;9.194;2023-05-10T00:33:54;15.70;99.90
4245;DHT22;2136;48.502;9.194;2023-05-10T00:36:21;15.70;99.90
4245;DHT22;2136;48.502;9.194;2023-05-10T00:38:48;15.80;99.90
4245;DHT22;2136;48.502;9.194;2023-05-10T00:41:15;15.70;99.90
4245;DHT22;2136;48.502;9.194;2023-05-10T00:43:43;15.70;99.90
4245;DHT22;2136;48.502;9.194;2023-05-10T00:46:10;15.70;99.90
4245;DHT22;2136;48.502;9.194;2023-05-10T00:48:38;15.70;99.90
4245;DHT22;2136;48.502;9.194;2023-05-10T00:51:05;15.70;99.90
4245;DHT22;2136;48.502;9.194;2023-05-10T00:53:32;15.60;99.90
4245;DHT22;2136;48.502;9.194;2023-05-10T00:56:01;15.60;99.90
4245;DHT22;2136;48.502;9.194;2023-05-10T00:58:28;15.60;99.90
4245;DHT22;2136;48.502;9.194;2023-05-10T01:00:58;15.60;99.90
4245;DHT22;2136;48.502;9.194;2023-05-10T01:03:26;15.50;99.90
4245;DHT22;2136;48.502;9.194;2023-05-10T01:05:52;15.50;99.90
4245;DHT22;2136;48.502;9.194;2023-05-10T01:08:20;15.50;99.90
4245;DHT22;2136;48.502;9.194;2023-05-10T01:10:47;15.50;99.90
4245;DHT22;2136;48.502;9.194;2023-05-10T01:13:23;15.50;99.90
4245;DHT22;2136;48.502;9.194;2023-05-10T01:15:58;15.50;99.90
4245;DHT22;2136;48.502;9.194;2023-05-10T01:18:27;15.40;99.90
4245;DHT22;2136;48.502;9.194;2023-05-10T01:21:04;15.40;99.90
4245;DHT22;2136;48.502;9.194;2023-05-10T01:23:45;15.40;99.90
4245;DHT22;2136;48.502;9.194;2023-05-10T01:26:39;15.40;99.90
4245;DHT22;2136;48.502;9.194;2023-05-10T01:29:41;15.40;99.90
4245;DHT22;2136;48.502;9.194;2023-05-10T01:32:22;15.40;99.90
4245;DHT22;2136;48.502;9.194;2023-05-10T01:34:56;15.30;99.90
4245;DHT22;2136;48.502;9.194;2023-05-10T01:37:31;15.30;99.90
4245;DHT22;2136;48.502;9.194;2023-05-10T01:40:03;15.30;99.90
4245;DHT22;2136;48.502;9.194;2023-05-10T01:42:40;15.30;99.90
4245;DHT22;2136;48.502;9.194;2023-05-10T01:45:20;15.30;99.90
4245;DHT22;2136;48.502;9.194;2023-05-10T01:47:57;15.30;99.90
4245;DHT22;2136;48.502;9.194;2023-05-10T01:50:31;15.30;99.90
4245;DHT22;2136;48.502;9.194;2023-05-10T01:53:00;15.30;99.90
4245;DHT22;2136;48.502;9.194;2023-05-10T01:55:30;15.30;99.90
4245;DHT22;2136;48.502;9.194;2023-05-10T01:58:02;15.30;99.90
4245;DHT22;2136;48.502;9.194;2023-05-10T02:00:31;15.30;99.90
4245;DHT22;2136;48.502;9.194;2023-05-10T02:03:00;15.30;99.90
4245;DHT22;2136;48.502;9.194;2023-05-10T02:05:29;15.20;99.90
4245;DHT22;2136;48.502;9.194;2023-05-10T02:07:58;15.20;99.90
4245;DHT22;2136;48.502;9.194;2023-05-10T02:10:26;15.20;99.90
4245;DHT22;2136;48.502;9.194;2023-05-10T02:12:53;15.20;99.90
4245;DHT22;2136;48.502;9.194;2023-05-10T02:15:23;15.10;99.90
4245;DHT22;2136;48.502;9.194;2023-05-10T02:17:52;15.10;99.90
4245;DHT22;2136;48.502;9.194;2023-05-10T02:20:23;15.10;99.90
4245;DHT22;2136;48.502;9.194;2023-05-10T02:22:53;15.10;99.90
4245;DHT22;2136;48.502;9.194;2023-05-10T02:25:22;15.10;99.90
4245;DHT22;2136;48.502;9.194;2023-05-10T02:27:50;15.10;99.90
4245;DHT22;2136;48.502;9.194;2023-05-10T02:30:18;15.10;99.90
4245;DHT22;2136;48.502;9.194;2023-05-10T02:32:46;15.10;99.90
4245;DHT22;2136;48.502;9.194;2023-05-10T02:35:14;15.00;99.90
4245;DHT22;2136;48.502;9.194;2023-05-10T02:37:45;15.00;99.90
4245;DHT22;2136;48.502;9.194;2023-05-10T02:40:13;15.00;99.90
4245;DHT22;2136;48.502;9.194;2023-05-10T02:42:42;14.90;99.90
4245;DHT22;2136;48.502;9.194;2023-05-10T02:45:14;14.90;99.90
4245;DHT22;2136;48.502;9.194;2023-05-10T02:47:42;14.90;99.90
4245;DHT22;2136;48.502;9.194;2023-05-10T02:50:09;14.80;99.90
4245;DHT22;2136;48.502;9.194;2023-05-10T02:52:40;14.80;99.90
4245;DHT22;2136;48.502;9.194;2023-05-10T02:55:11;14.80;99.90
4245;DHT22;2136;48.502;9.194;2023-05-10T02:57:41;14.80;99.90
4245;DHT22;2136;48.502;9.194;2023-05-10T03:00:10;14.80;99.90
4245;DHT22;2136;48.502;9.194;2023-05-10T03:02:37;14.80;99.90
4245;DHT22;2136;48.502;9.194;2023-05-10T03:05:04;14.80;99.90
4245;DHT22;2136;48.502;9.194;2023-05-10T03:07:32;14.80;99.90
4245;DHT22;2136;48.502;9.194;2023-05-10T03:10:00;14.80;99.90
4245;DHT22;2136;48.502;9.194;2023-05-10T03:12:35;14.70;99.90
4245;DHT22;2136;48.502;9.194;2023-05-10T03:15:11;14.70;99.90
4245;DHT22;2136;48.502;9.194;2023-05-10T03:17:45;14.70;99.90
4245;DHT22;2136;48.502;9.194;2023-05-10T03:20:20;14.70;99.90
4245;DHT22;2136;48.502;9.194;2023-05-10T03:22:51;14.70;99.90
4245;DHT22;2136;48.502;9.194;2023-05-10T03:25:21;14.60;99.90
4245;DHT22;2136;48.502;9.194;2023-05-10T03:27:52;14.70;99.90
4245;DHT22;2136;48.502;9.194;2023-05-10T03:30:19;14.70;99.90
4245;DHT22;2136;48.502;9.194;2023-05-10T03:32:46;14.70;99.90
4245;DHT22;2136;48.502;9.194;2023-05-10T03:35:13;14.70;99.90
4245;DHT22;2136;48.502;9.194;2023-05-10T03:37:40;14.70;99.90
4245;DHT22;2136;48.502;9.194;2023-05-10T03:40:08;14.80;99.90
4245;DHT22;2136;48.502;9.194;2023-05-10T03:42:35;14.80;99.90
4245;DHT22;2136;48.502;9.194;2023-05-10T03:45:03;14.80;99.90
4245;DHT22;2136;48.502;9.194;2023-05-10T03:47:30;14.80;99.90
4245;DHT22;2136;48.502;9.194;2023-05-10T03:49:57;14.90;99.90
4245;DHT22;2136;48.502;9.194;2023-05-10T03:52:24;14.90;99.90
4245;DHT22;2136;48.502;9.194;2023-05-10T03:54:51;14.90;99.90
4245;DHT22;2136;48.502;9.194;2023-05-10T03:57:18;14.90;99.90
4245;DHT22;2136;48.502;9.194;2023-05-10T03:59:45;15.00;99.90
4245;DHT22;2136;48.502;9.194;2023-05-10T04:02:13;14.90;99.90
4245;DHT22;2136;48.502;9.194;2023-05-10T04:04:40;15.00;99.90
4245;DHT22;2136;48.502;9.194;2023-05-10T04:07:07;15.00;99.90
4245;DHT22;2136;48.502;9.194;2023-05-10T04:09:35;15.00;99.90
4245;DHT22;2136;48.502;9.194;2023-05-10T04:12:02;15.00;99.90
4245;DHT22;2136;48.502;9.194;2023-05-10T04:14:29;15.00;99.90
4245;DHT22;2136;48.502;9.194;2023-05-10T04:16:56;15.00;99.90
4245;DHT22;2136;48.502;9.194;2023-05-10T04:19:28;15.00;99.90
4245;DHT22;2136;48.502;9.194;2023-05-10T04:21:55;15.00;99.90
4245;DHT22;2136;48.502;9.194;2023-05-10T04:24:22;15.00;99.90
4245;DHT22;2136;48.502;9.194;2023-05-10T04:26:48;15.00;99.90
4245;DHT22;2136;48.502;9.194;2023-05-10T04:29:15;15.00;99.90
4245;DHT22;2136;48.502;9.194;2023-05-10T04:31:42;15.00;99.90
4245;DHT22;2136;48.502;9.194;2023-05-10T04:34:09;15.00;99.90
4245;DHT22;2136;48.502;9.194;2023-05-10T04:36:37;15.00;99.90
4245;DHT22;2136;48.502;9.194;2023-05-10T04:39:04;15.00;99.90
4245;DHT22;2136;48.502;9.194;2023-05-10T04:41:31;15.00;99.90
4245;DHT22;2136;48.502;9.194;2023-05-10T04:43:58;15.00;99.90
4245;DHT22;2136;48.502;9.194;2023-05-10T04:46:25;15.10;99.90
4245;DHT22;2136;48.502;9.194;2023-05-10T04:48:52;15.00;99.90
4245;DHT22;2136;48.502;9.194;2023-05-10T04:51:19;15.00;99.90
4245;DHT22;2136;48.502;9.194;2023-05-10T04:53:47;15.00;99.90
4245;DHT22;2136;48.502;9.194;2023-05-10T04:56:14;15.00;99.90
4245;DHT22;2136;48.502;9.194;2023-05-10T04:58:41;15.00;99.90
4245;DHT22;2136;48.502;9.194;2023-05-10T05:01:08;15.00;99.90
4245;DHT22;2136;48.502;9.194;2023-05-10T05:03:36;15.10;99.90
4245;DHT22;2136;48.502;9.194;2023-05-10T05:06:03;15.10;99.90
4245;DHT22;2136;48.502;9.194;2023-05-10T05:08:30;15.10;99.90
4245;DHT22;2136;48.502;9.194;2023-05-10T05:10:58;15.10;99.90
4245;DHT22;2136;48.502;9.194;2023-05-10T05:13:25;15.10;99.90
4245;DHT22;2136;48.502;9.194;2023-05-10T05:15:52;15.20;99.90
4245;DHT22;2136;48.502;9.194;2023-05-10T05:18:20;15.20;99.90
4245;DHT22;2136;48.502;9.194;2023-05-10T05:20:47;15.20;99.90
4245;DHT22;2136;48.502;9.194;2023-05-10T05:23:14;15.20;99.90
4245;DHT22;2136;48.502;9.194;2023-05-10T05:25:41;15.20;99.90
4245;DHT22;2136;48.502;9.194;2023-05-10T05:28:09;15.20;99.90
4245;DHT22;2136;48.502;9.194;2023-05-10T05:30:36;15.20;99.90
4245;DHT22;2136;48.502;9.194;2023-05-10T05:33:03;15.30;99.90
4245;DHT22;2136;48.502;9.194;2023-05-10T05:35:30;15.30;99.90
4245;DHT22;2136;48.502;9.194;2023-05-10T05:37:57;15.30;99.90
4245;DHT22;2136;48.502;9.194;2023-05-10T05:40:24;15.50;99.90
4245;DHT22;2136;48.502;9.194;2023-05-10T05:42:50;15.40;99.90
4245;DHT22;2136;48.502;9.194;2023-05-10T05:45:19;15.50;99.90
4245;DHT22;2136;48.502;9.194;2023-05-10T05:47:46;15.50;99.90
4245;DHT22;2136;48.502;9.194;2023-05-10T05:50:13;15.40;99.90
4245;DHT22;2136;48.502;9.194;2023-05-10T05:52:40;15.30;99.90
4245;DHT22;2136;48.502;9.194;2023-05-10T05:55:07;15.30;99.90
4245;DHT22;2136;48.502;9.194;2023-05-10T05:57:34;15.20;99.90
4245;DHT22;2136;48.502;9.194;2023-05-10T06:00:01;15.20;99.90
4245;DHT22;2136;48.502;9.194;2023-05-10T06:02:30;15.20;99.90
4245;DHT22;2136;48.502;9.194;2023-05-10T06:04:57;15.10;99.90
4245;DHT22;2136;48.502;9.194;2023-05-10T06:07:24;15.10;99.90
4245;DHT22;2136;48.502;9.194;2023-05-10T06:09:50;15.10;99.90
4245;DHT22;2136;48.502;9.194;2023-05-10T06:12:17;15.20;99.90
4245;DHT22;2136;48.502;9.194;2023-05-10T06:14:44;15.20;99.90
4245;DHT22;2136;48.502;9.194;2023-05-10T06:17:11;15.20;99.90
4245;DHT22;2136;48.502;9.194;2023-05-10T06:19:39;15.20;99.90
4245;DHT22;2136;48.502;9.194;2023-05-10T06:22:06;15.20;99.90
4245;DHT22;2136;48.502;9.194;2023-05-10T06:24:33;15.20;99.90
4245;DHT22;2136;48.502;9.194;2023-05-10T06:27:00;15.20;99.90
4245;DHT22;2136;48.502;9.194;2023-05-10T06:29:27;15.30;99.90
4245;DHT22;2136;48.502;9.194;2023-05-10T06:31:54;15.30;99.90
4245;DHT22;2136;48.502;9.194;2023-05-10T06:34:21;15.40;99.90
4245;DHT22;2136;48.502;9.194;2023-05-10T06:36:49;15.40;99.90
4245;DHT22;2136;48.502;9.194;2023-05-10T06:39:17;15.40;99.90
4245;DHT22;2136;48.502;9.194;2023-05-10T06:41:43;15.40;99.90
4245;DHT22;2136;48.502;9.194;2023-05-10T06:44:10;15.40;99.90
4245;DHT22;2136;48.502;9.194;2023-05-10T06:46:38;15.50;99.90
4245;DHT22;2136;48.502;9.194;2023-05-10T06:49:05;15.50;99.90
4245;DHT22;2136;48.502;9.194;2023-05-10T06:51:32;15.60;99.90
4245;DHT22;2136;48.502;9.194;2023-05-10T06:54:00;15.70;99.90
4245;DHT22;2136;48.502;9.194;2023-05-10T06:56:27;15.80;99.90
4245;DHT22;2136;48.502;9.194;2023-05-10T06:58:54;15.80;99.90
4245;DHT22;2136;48.502;9.194;2023-05-10T07:01:21;15.90;99.90
4245;DHT22;2136;48.502;9.194;2023-05-10T07:03:48;15.90;99.90
4245;DHT22;2136;48.502;9.194;2023-05-10T07:06:14;16.00;99.90
4245;DHT22;2136;48.502;9.194;2023-05-10T07:08:41;16.10;99.90
4245;DHT22;2136;48.502;9.194;2023-05-10T07:11:10;16.10;99.90
4245;DHT22;2136;48.502;9.194;2023-05-10T07:13:36;16.20;99.90
4245;DHT22;2136;48.502;9.194;2023-05-10T07:16:05;16.10;99.90
4245;DHT22;2136;48.502;9.194;2023-05-10T07:18:32;16.10;99.90
4245;DHT22;2136;48.502;9.194;2023-05-10T07:20:59;16.10;99.90
4245;DHT22;2136;48.502;9.194;2023-05-10T07:23:25;16.00;99.90
4245;DHT22;2136;48.502;9.194;2023-05-10T07:25:52;16.00;99.90
4245;DHT22;2136;48.502;9.194;2023-05-10T07:28:21;15.90;99.60
4245;DHT22;2136;48.502;9.194;2023-05-10T07:30:48;15.90;99.70
4245;DHT22;2136;48.502;9.194;2023-05-10T07:33:15;15.90;99.50
4245;DHT22;2136;48.502;9.194;2023-05-10T07:35:42;15.90;99.70
4245;DHT22;2136;48.502;9.194;2023-05-10T07:38:09;15.90;99.90
4245;DHT22;2136;48.502;9.194;2023-05-10T07:40:37;15.90;99.80
4245;DHT22;2136;48.502;9.194;2023-05-10T07:43:04;15.90;99.80
4245;DHT22;2136;48.502;9.194;2023-05-10T07:45:32;15.90;99.80
4245;DHT22;2136;48.502;9.194;2023-05-10T07:47:59;15.90;99.90
4245;DHT22;2136;48.502;9.194;2023-05-10T07:50:26;15.90;99.90
4245;DHT22;2136;48.502;9.194;2023-05-10T07:52:53;16.00;99.90
4245;DHT22;2136;48.502;9.194;2023-05-10T07:55:20;16.00;99.90
4245;DHT22;2136;48.502;9.194;2023-05-10T07:57:47;16.00;99.90
4245;DHT22;2136;48.502;9.194;2023-05-10T08:00:17;16.00;99.80
4245;DHT22;2136;48.502;9.194;2023-05-10T08:02:46;16.00;99.60
4245;DHT22;2136;48.502;9.194;2023-05-10T08:05:13;16.10;99.30
4245;DHT22;2136;48.502;9.194;2023-05-10T08:07:40;16.10;99.10
4245;DHT22;2136;48.502;9.194;2023-05-10T08:10:08;16.20;99.60
4245;DHT22;2136;48.502;9.194;2023-05-10T08:12:36;16.30;99.90
4245;DHT22;2136;48.502;9.194;2023-05-10T08:15:03;16.40;99.90
4245;DHT22;2136;48.502;9.194;2023-05-10T08:17:30;16.50;99.90
4245;DHT22;2136;48.502;9.194;2023-05-10T08:19:59;16.60;98.20
4245;DHT22;2136;48.502;9.194;2023-05-10T08:22:26;16.70;96.70
4245;DHT22;2136;48.502;9.194;2023-05-10T08:24:53;16.80;95.90
4245;DHT22;2136;48.502;9.194;2023-05-10T08:27:19;16.90;94.20
4245;DHT22;2136;48.502;9.194;2023-05-10T08:29:46;17.00;93.40
4245;DHT22;2136;48.502;9.194;2023-05-10T08:32:13;17.10;92.90
4245;DHT22;2136;48.502;9.194;2023-05-10T08:34:40;17.20;91.90
4245;DHT22;2136;48.502;9.194;2023-05-10T08:37:08;17.30;90.40
4245;DHT22;2136;48.502;9.194;2023-05-10T08:39:38;17.30;88.10
4245;DHT22;2136;48.502;9.194;2023-05-10T08:42:05;17.40;86.70
4245;DHT22;2136;48.502;9.194;2023-05-10T08:44:35;17.50;86.60
4245;DHT22;2136;48.502;9.194;2023-05-10T08:47:05;17.60;85.40
4245;DHT22;2136;48.502;9.194;2023-05-10T08:49:32;17.70;83.80
4245;DHT22;2136;48.502;9.194;2023-05-10T08:52:02;17.80;83.70
4245;DHT22;2136;48.502;9.194;2023-05-10T08:54:31;17.80;82.00
4245;DHT22;2136;48.502;9.194;2023-05-10T08:56:58;17.90;80.90
4245;DHT22;2136;48.502;9.194;2023-05-10T08:59:25;18.00;80.30
4245;DHT22;2136;48.502;9.194;2023-05-10T09:01:52;18.10;78.70
4245;DHT22;2136;48.502;9.194;2023-05-10T09:04:21;18.00;77.60
4245;DHT22;2136;48.502;9.194;2023-05-10T09:06:48;17.90;76.20
4245;DHT22;2136;48.502;9.194;2023-05-10T09:09:15;17.90;76.40
4245;DHT22;2136;48.502;9.194;2023-05-10T09:11:45;17.80;75.90
4245;DHT22;2136;48.502;9.194;2023-05-10T09:14:12;17.70;75.20
4245;DHT22;2136;48.502;9.194;2023-05-10T09:16:40;17.70;75.50
4245;DHT22;2136;48.502;9.194;2023-05-10T09:19:08;17.70;75.80
4245;DHT22;2136;48.502;9.194;2023-05-10T09:21:35;17.60;76.40
4245;DHT22;2136;48.502;9.194;2023-05-10T09:24:04;17.70;76.80
4245;DHT22;2136;48.502;9.194;2023-05-10T09:26:31;17.70;76.10
4245;DHT22;2136;48.502;9.194;2023-05-10T09:29:00;17.80;76.50
4245;DHT22;2136;48.502;9.194;2023-05-10T09:31:43;17.80;76.30
4245;DHT22;2136;48.502;9.194;2023-05-10T09:34:15;17.90;75.90
4245;DHT22;2136;48.502;9.194;2023-05-10T09:36:56;17.90;74.30
4245;DHT22;2136;48.502;9.194;2023-05-10T09:39:31;18.00;73.50
4245;DHT22;2136;48.502;9.194;2023-05-10T09:41:59;18.10;73.80
4245;DHT22;2136;48.502;9.194;2023-05-10T09:44:28;18.20;74.00
4245;DHT22;2136;48.502;9.194;2023-05-10T09:46:55;18.40;74.60
4245;DHT22;2136;48.502;9.194;2023-05-10T09:49:22;18.60;73.90
4245;DHT22;2136;48.502;9.194;2023-05-10T09:52:00;18.80;71.90
4245;DHT22;2136;48.502;9.194;2023-05-10T09:54:27;19.00;71.20
4245;DHT22;2136;48.502;9.194;2023-05-10T09:56:54;19.10;70.20
4245;DHT22;2136;48.502;9.194;2023-05-10T09:59:21;19.30;69.30
4245;DHT22;2136;48.502;9.194;2023-05-10T10:01:51;19.40;67.50
4245;DHT22;2136;48.502;9.194;2023-05-10T10:04:17;19.30;65.90
4245;DHT22;2136;48.502;9.194;2023-05-10T10:06:46;19.30;64.80
4245;DHT22;2136;48.502;9.194;2023-05-10T10:09:14;19.10;64.20
4245;DHT22;2136;48.502;9.194;2023-05-10T10:11:41;18.90;63.60
4245;DHT22;2136;48.502;9.194;2023-05-10T10:14:07;18.60;63.80
4245;DHT22;2136;48.502;9.194;2023-05-10T10:16:34;18.40;65.60
4245;DHT22;2136;48.502;9.194;2023-05-10T10:19:03;18.10;68.10
4245;DHT22;2136;48.502;9.194;2023-05-10T10:21:30;17.90;69.50
4245;DHT22;2136;48.502;9.194;2023-05-10T10:23:58;17.70;71.70
4245;DHT22;2136;48.502;9.194;2023-05-10T10:26:25;17.60;73.50
4245;DHT22;2136;48.502;9.194;2023-05-10T10:29:00;17.50;74.80
4245;DHT22;2136;48.502;9.194;2023-05-10T10:31:36;17.50;76.20
4245;DHT22;2136;48.502;9.194;2023-05-10T10:34:08;17.40;77.10
4245;DHT22;2136;48.502;9.194;2023-05-10T10:36:40;17.40;78.20
4245;DHT22;2136;48.502;9.194;2023-05-10T10:39:09;17.50;78.90
4245;DHT22;2136;48.502;9.194;2023-05-10T10:41:38;17.50;79.10
4245;DHT22;2136;48.502;9.194;2023-05-10T10:44:26;17.50;79.10
4245;DHT22;2136;48.502;9.194;2023-05-10T10:47:06;17.40;79.90
4245;DHT22;2136;48.502;9.194;2023-05-10T10:49:42;17.40;79.50
4245;DHT22;2136;48.502;9.194;2023-05-10T10:52:14;17.40;81.20
4245;DHT22;2136;48.502;9.194;2023-05-10T10:54:41;17.40;81.60
4245;DHT22;2136;48.502;9.194;2023-05-10T10:57:14;17.50;81.50
4245;DHT22;2136;48.502;9.194;2023-05-10T10:59:41;17.60;80.90
4245;DHT22;2136;48.502;9.194;2023-05-10T11:02:09;17.70;82.10
4245;DHT22;2136;48.502;9.194;2023-05-10T11:04:43;17.80;80.50
4245;DHT22;2136;48.502;9.194;2023-05-10T11:07:18;17.90;78.00
4245;DHT22;2136;48.502;9.194;2023-05-10T11:09:47;18.00;76.40
4245;DHT22;2136;48.502;9.194;2023-05-10T11:12:15;18.20;76.20
4245;DHT22;2136;48.502;9.194;2023-05-10T11:14:42;18.30;75.30
4245;DHT22;2136;48.502;9.194;2023-05-10T11:17:24;18.50;74.90
4245;DHT22;2136;48.502;9.194;2023-05-10T11:20:10;18.80;74.40
4245;DHT22;2136;48.502;9.194;2023-05-10T11:22:50;19.20;74.20
4245;DHT22;2136;48.502;9.194;2023-05-10T11:25:17;19.50;71.60
4245;DHT22;2136;48.502;9.194;2023-05-10T11:27:47;19.50;69.80
4245;DHT22;2136;48.502;9.194;2023-05-10T11:30:15;19.30;67.40
4245;DHT22;2136;48.502;9.194;2023-05-10T11:32:43;19.00;65.40
4245;DHT22;2136;48.502;9.194;2023-05-10T11:35:12;18.60;64.20
4245;DHT22;2136;48.502;9.194;2023-05-10T11:37:40;18.30;64.00
4245;DHT22;2136;48.502;9.194;2023-05-10T11:40:10;18.00;64.10
4245;DHT22;2136;48.502;9.194;2023-05-10T11:42:37;17.70;64.70
4245;DHT22;2136;48.502;9.194;2023-05-10T11:45:05;17.60;65.90
4245;DHT22;2136;48.502;9.194;2023-05-10T11:47:32;17.60;67.00
4245;DHT22;2136;48.502;9.194;2023-05-10T11:50:01;17.60;67.50
4245;DHT22;2136;48.502;9.194;2023-05-10T11:52:29;17.60;66.50
4245;DHT22;2136;48.502;9.194;2023-05-10T11:55:01;17.60;65.10
4245;DHT22;2136;48.502;9.194;2023-05-10T11:57:29;17.60;64.50
4245;DHT22;2136;48.502;9.194;2023-05-10T11:59:57;17.40;65.00
4245;DHT22;2136;48.502;9.194;2023-05-10T12:02:24;17.30;66.90
4245;DHT22;2136;48.502;9.194;2023-05-10T12:04:52;17.20;67.40
4245;DHT22;2136;48.502;9.194;2023-05-10T12:07:19;17.10;68.40
4245;DHT22;2136;48.502;9.194;2023-05-10T12:10:06;17.10;70.30
4245;DHT22;2136;48.502;9.194;2023-05-10T12:12:40;17.00;71.40
4245;DHT22;2136;48.502;9.194;2023-05-10T12:15:12;17.00;72.80
4245;DHT22;2136;48.502;9.194;2023-05-10T12:17:44;17.00;73.60
4245;DHT22;2136;48.502;9.194;2023-05-10T12:20:15;17.00;74.10
4245;DHT22;2136;48.502;9.194;2023-05-10T12:22:47;17.00;74.00
4245;DHT22;2136;48.502;9.194;2023-05-10T12:25:17;17.10;74.00
4245;DHT22;2136;48.502;9.194;2023-05-10T12:27:49;17.10;73.90
4245;DHT22;2136;48.502;9.194;2023-05-10T12:30:21;17.20;73.00
4245;DHT22;2136;48.502;9.194;2023-05-10T12:32:48;17.30;72.70
4245;DHT22;2136;48.502;9.194;2023-05-10T12:35:15;17.30;72.10
4245;DHT22;2136;48.502;9.194;2023-05-10T12:37:43;17.40;71.20
4245;DHT22;2136;48.502;9.194;2023-05-10T12:40:10;17.50;71.00
4245;DHT22;2136;48.502;9.194;2023-05-10T12:42:39;17.60;70.10
4245;DHT22;2136;48.502;9.194;2023-05-10T12:45:08;17.70;69.40
4245;DHT22;2136;48.502;9.194;2023-05-10T12:47:35;17.90;69.40
4245;DHT22;2136;48.502;9.194;2023-05-10T12:50:03;17.90;66.40
4245;DHT22;2136;48.502;9.194;2023-05-10T12:52:31;18.00;66.00
4245;DHT22;2136;48.502;9.194;2023-05-10T12:54:58;18.10;66.20
4245;DHT22;2136;48.502;9.194;2023-05-10T12:57:26;18.10;65.20
4245;DHT22;2136;48.502;9.194;2023-05-10T12:59:54;18.10;64.60
4245;DHT22;2136;48.502;9.194;2023-05-10T13:02:21;18.10;64.80
4245;DHT22;2136;48.502;9.194;2023-05-10T13:04:54;18.20;65.10
4245;DHT22;2136;48.502;9.194;2023-05-10T13:07:20;18.20;65.20
4245;DHT22;2136;48.502;9.194;2023-05-10T13:09:47;18.20;64.50
4245;DHT22;2136;48.502;9.194;2023-05-10T13:12:14;18.20;64.60
4245;DHT22;2136;48.502;9.194;2023-05-10T13:14:41;18.20;64.60
4245;DHT22;2136;48.502;9.194;2023-05-10T13:17:09;18.20;64.70
4245;DHT22;2136;48.502;9.194;2023-05-10T13:19:36;18.20;63.70
4245;DHT22;2136;48.502;9.194;2023-05-10T13:22:03;18.20;63.30
4245;DHT22;2136;48.502;9.194;2023-05-10T13:24:30;18.10;63.00
4245;DHT22;2136;48.502;9.194;2023-05-10T13:26:58;18.20;63.30
4245;DHT22;2136;48.502;9.194;2023-05-10T13:29:24;18.10;63.70
4245;DHT22;2136;48.502;9.194;2023-05-10T13:31:51;18.30;63.90
4245;DHT22;2136;48.502;9.194;2023-05-10T13:34:20;18.40;64.30
4245;DHT22;2136;48.502;9.194;2023-05-10T13:36:47;18.40;64.00
4245;DHT22;2136;48.502;9.194;2023-05-10T13:39:14;18.40;64.00
4245;DHT22;2136;48.502;9.194;2023-05-10T13:41:41;18.50;64.50
4245;DHT22;2136;48.502;9.194;2023-05-10T13:44:08;18.50;63.40
4245;DHT22;2136;48.502;9.194;2023-05-10T13:46:35;18.50;62.90
4245;DHT22;2136;48.502;9.194;2023-05-10T13:49:03;18.60;62.90
4245;DHT22;2136;48.502;9.194;2023-05-10T13:51:31;18.70;63.00
4245;DHT22;2136;48.502;9.194;2023-05-10T13:53:58;18.70;63.10
4245;DHT22;2136;48.502;9.194;2023-05-10T13:56:25;18.70;62.80
4245;DHT22;2136;48.502;9.194;2023-05-10T13:58:52;18.70;62.50
4245;DHT22;2136;48.502;9.194;2023-05-10T14:01:19;18.70;62.00
4245;DHT22;2136;48.502;9.194;2023-05-10T14:03:45;18.70;62.30
4245;DHT22;2136;48.502;9.194;2023-05-10T14:06:13;18.80;62.30
4245;DHT22;2136;48.502;9.194;2023-05-10T14:08:41;18.80;62.10
4245;DHT22;2136;48.502;9.194;2023-05-10T14:11:08;18.80;61.80
4245;DHT22;2136;48.502;9.194;2023-05-10T14:13:35;18.80;60.90
4245;DHT22;2136;48.502;9.194;2023-05-10T14:16:02;18.90;60.90
4245;DHT22;2136;48.502;9.194;2023-05-10T14:18:32;18.90;61.50
4245;DHT22;2136;48.502;9.194;2023-05-10T14:20:59;19.00;62.50
4245;DHT22;2136;48.502;9.194;2023-05-10T14:23:26;19.10;61.90
4245;DHT22;2136;48.502;9.194;2023-05-10T14:26:00;19.00;60.80
4245;DHT22;2136;48.502;9.194;2023-05-10T14:28:29;19.10;60.90
4245;DHT22;2136;48.502;9.194;2023-05-10T14:30:56;19.10;60.20
4245;DHT22;2136;48.502;9.194;2023-05-10T14:33:23;19.10;59.70
4245;DHT22;2136;48.502;9.194;2023-05-10T14:35:50;19.10;59.80
4245;DHT22;2136;48.502;9.194;2023-05-10T14:38:17;19.10;59.80
4245;DHT22;2136;48.502;9.194;2023-05-10T14:40:44;19.10;60.50
4245;DHT22;2136;48.502;9.194;2023-05-10T14:43:12;19.10;61.00
4245;DHT22;2136;48.502;9.194;2023-05-10T14:45:39;19.20;61.80
4245;DHT22;2136;48.502;9.194;2023-05-10T14:48:06;19.20;63.20
4245;DHT22;2136;48.502;9.194;2023-05-10T14:50:36;19.20;63.00
4245;DHT22;2136;48.502;9.194;2023-05-10T14:53:03;19.30;61.90
4245;DHT22;2136;48.502;9.194;2023-05-10T14:55:30;19.20;61.60
4245;DHT22;2136;48.502;9.194;2023-05-10T14:57:58;19.30;60.30
4245;DHT22;2136;48.502;9.194;2023-05-10T15:00:27;19.20;60.50
4245;DHT22;2136;48.502;9.194;2023-05-10T15:02:54;19.10;60.40
4245;DHT22;2136;48.502;9.194;2023-05-10T15:05:21;19.10;60.40
4245;DHT22;2136;48.502;9.194;2023-05-10T15:07:48;19.10;60.60
4245;DHT22;2136;48.502;9.194;2023-05-10T15:10:16;19.10;60.90
4245;DHT22;2136;48.502;9.194;2023-05-10T15:12:43;19.10;61.60
4245;DHT22;2136;48.502;9.194;2023-05-10T15:15:10;19.10;61.50
4245;DHT22;2136;48.502;9.194;2023-05-10T15:17:38;19.10;62.20
4245;DHT22;2136;48.502;9.194;2023-05-10T15:20:06;19.10;62.80
4245;DHT22;2136;48.502;9.194;2023-05-10T15:22:33;19.10;62.80
4245;DHT22;2136;48.502;9.194;2023-05-10T15:25:00;19.10;62.60
4245;DHT22;2136;48.502;9.194;2023-05-10T15:27:27;19.10;62.30
4245;DHT22;2136;48.502;9.194;2023-05-10T15:29:54;19.10;61.80
4245;DHT22;2136;48.502;9.194;2023-05-10T15:32:21;19.10;62.80
4245;DHT22;2136;48.502;9.194;2023-05-10T15:34:49;19.10;62.80
4245;DHT22;2136;48.502;9.194;2023-05-10T15:37:16;19.00;62.20
4245;DHT22;2136;48.502;9.194;2023-05-10T15:39:43;19.00;62.70
4245;DHT22;2136;48.502;9.194;2023-05-10T15:42:10;18.90;62.70
4245;DHT22;2136;48.502;9.194;2023-05-10T15:44:37;18.90;62.90
4245;DHT22;2136;48.502;9.194;2023-05-10T15:47:04;18.80;63.90
4245;DHT22;2136;48.502;9.194;2023-05-10T15:49:31;18.70;64.80
4245;DHT22;2136;48.502;9.194;2023-05-10T15:52:00;18.60;64.50
4245;DHT22;2136;48.502;9.194;2023-05-10T15:54:27;18.50;62.70
4245;DHT22;2136;48.502;9.194;2023-05-10T15:56:54;18.40;63.00
4245;DHT22;2136;48.502;9.194;2023-05-10T15:59:21;18.30;62.80
4245;DHT22;2136;48.502;9.194;2023-05-10T16:01:48;18.20;62.20
4245;DHT22;2136;48.502;9.194;2023-05-10T16:04:15;18.20;62.20
4245;DHT22;2136;48.502;9.194;2023-05-10T16:06:42;18.10;61.70
4245;DHT22;2136;48.502;9.194;2023-05-10T16:09:10;18.00;61.40
4245;DHT22;2136;48.502;9.194;2023-05-10T16:11:37;17.90;62.40